Time;durP1;ratioP1;P1;durP2;ratioP2;P2;SDS_P1;SDS_P2;PMS_P1;PMS_P2;Temp;Humidity;BMP_temperature;BMP_pressure;BME280_temperature;BME280_humidity;BME280_pressure;Samples;Min_cycle;Max_cycle;Signal;HPM_P1;HPM_P2
2022/02/21 00:01:00;;;;;;;2.50;1.00;;;12.80;54.40;;;;;;5047904;28;20275;-47
2022/02/21 00:03:27;;;;;;;2.47;1.13;;;13.00;54.50;;;;;;5036584;28;20220;-45
2022/02/21 00:05:53;;;;;;;1.13;1.03;;;13.10;54.50;;;;;;5043599;28;20471;-45
2022/02/21 00:08:18;;;;;;;1.00;0.83;;;13.20;54.30;;;;;;5045570;28;20435;-44
2022/02/21 00:10:44;;;;;;;1.37;1.07;;;12.90;54.20;;;;;;5051744;28;20260;-44
2022/02/21 00:13:13;;;;;;;1.50;0.83;;;12.70;54.70;;;;;;5038916;28;20223;-47
2022/02/21 00:15:39;;;;;;;3.23;1.17;;;12.80;54.90;;;;;;5047019;28;20446;-45
2022/02/21 00:18:04;;;;;;;1.40;0.90;;;13.00;54.80;;;;;;5044912;28;20439;-45
2022/02/21 00:20:30;;;;;;;2.87;1.00;;;12.80;54.50;;;;;;5048353;28;20242;-45
2022/02/21 00:22:56;;;;;;;1.50;0.83;;;12.80;54.60;;;;;;5048695;28;20200;-45
2022/02/21 00:25:22;;;;;;;1.80;0.70;;;12.70;54.60;;;;;;5036888;28;20502;-45
2022/02/21 00:27:47;;;;;;;2.07;0.93;;;12.60;54.70;;;;;;5040987;28;20601;-47
2022/02/21 00:30:13;;;;;;;2.67;0.90;;;12.60;54.60;;;;;;5047596;28;20200;-47
2022/02/21 00:32:38;;;;;;;2.40;1.10;;;12.70;54.30;;;;;;5047557;28;20231;-44
2022/02/21 00:35:05;;;;;;;1.33;1.00;;;12.80;54.20;;;;;;5041815;28;20190;-45
2022/02/21 00:37:30;;;;;;;1.47;1.13;;;12.80;54.00;;;;;;5041175;28;20200;-45
2022/02/21 00:39:56;;;;;;;2.97;1.07;;;12.70;54.00;;;;;;5049695;28;20435;-45
2022/02/21 00:42:22;;;;;;;3.20;0.93;;;12.80;54.20;;;;;;5046252;28;20224;-47
2022/02/21 00:44:59;;;;;;;5.57;0.83;;;12.90;54.00;;;;;;5047243;28;20264;-44
2022/02/21 00:47:28;;;;;;;5.10;3.03;;;12.80;54.20;;;;;;5039947;28;20561;-44
2022/02/21 00:49:57;;;;;;;2.20;0.87;;;12.90;54.30;;;;;;5046702;28;20855;-45
2022/02/21 00:52:23;;;;;;;7.30;0.97;;;12.90;54.10;;;;;;5039800;28;20495;-46
2022/02/21 00:54:49;;;;;;;2.77;1.00;;;12.90;54.20;;;;;;5049864;28;20439;-44
2022/02/21 00:57:15;;;;;;;4.20;1.30;;;13.00;54.50;;;;;;5044817;28;20203;-45
2022/02/21 00:59:40;;;;;;;2.40;1.13;;;12.80;54.50;;;;;;5043037;28;20193;-47
2022/02/21 01:02:06;;;;;;;2.23;1.00;;;12.80;54.90;;;;;;5045148;28;20222;-46
2022/02/21 01:04:31;;;;;;;4.20;1.40;;;12.90;54.90;;;;;;5040833;28;20197;-45
2022/02/21 01:06:57;;;;;;;5.83;1.10;;;12.70;55.20;;;;;;5042923;28;20193;-46
2022/02/21 01:09:23;;;;;;;2.37;1.57;;;12.90;55.20;;;;;;5042503;28;20710;-46
2022/02/21 01:11:49;;;;;;;1.33;1.10;;;13.00;55.00;;;;;;5038626;28;20286;-46
2022/02/21 01:14:15;;;;;;;1.57;0.93;;;13.10;55.10;;;;;;5042175;28;20488;-44
2022/02/21 01:16:41;;;;;;;2.63;1.03;;;12.80;54.90;;;;;;5049631;28;20616;-44
2022/02/21 01:19:06;;;;;;;6.40;1.20;;;12.70;55.30;;;;;;5047151;28;20639;-46
2022/02/21 01:21:32;;;;;;;3.30;1.40;;;12.80;55.70;;;;;;5046286;28;20192;-45
2022/02/21 01:23:58;;;;;;;2.70;1.10;;;12.90;55.40;;;;;;5038997;28;20230;-45
2022/02/21 01:26:25;;;;;;;1.80;1.00;;;13.00;55.40;;;;;;5050230;28;20450;-45
2022/02/21 01:28:52;;;;;;;1.87;0.93;;;12.90;55.70;;;;;;5040852;28;20439;-45
2022/02/21 01:31:18;;;;;;;4.07;1.07;;;12.90;55.50;;;;;;5039125;28;20478;-47
2022/02/21 01:33:43;;;;;;;1.03;0.90;;;12.90;55.70;;;;;;5041972;28;20447;-45
2022/02/21 01:36:09;;;;;;;1.73;0.97;;;12.70;55.70;;;;;;5047826;28;20474;-44
2022/02/21 01:38:36;;;;;;;4.40;0.80;;;12.70;56.10;;;;;;5040838;28;20204;-45
2022/02/21 01:41:02;;;;;;;1.60;0.90;;;12.70;56.20;;;;;;5045495;28;20666;-44
2022/02/21 01:43:28;;;;;;;3.60;1.00;;;12.70;56.30;;;;;;5046257;28;20475;-44
2022/02/21 01:45:53;;;;;;;2.07;0.77;;;12.80;56.30;;;;;;5046106;28;21060;-45
2022/02/21 01:48:19;;;;;;;1.53;0.80;;;12.80;56.20;;;;;;5047372;28;20258;-45
2022/02/21 01:50:45;;;;;;;1.10;0.93;;;12.80;56.20;;;;;;5049437;28;20227;-45
2022/02/21 01:53:11;;;;;;;2.47;1.47;;;12.70;56.30;;;;;;5050981;28;20203;-45
2022/02/21 01:55:37;;;;;;;2.00;0.70;;;12.90;56.40;;;;;;5045761;28;20192;-45
2022/02/21 01:58:06;;;;;;;3.03;1.07;;;12.70;56.10;;;;;;5048134;28;20956;-45
2022/02/21 02:00:31;;;;;;;3.93;1.20;;;12.50;56.60;;;;;;5037519;28;20490;-44
2022/02/21 02:02:57;;;;;;;2.00;0.80;;;12.40;56.80;;;;;;5046479;28;20451;-44
2022/02/21 02:05:25;;;;;;;0.93;0.70;;;12.50;57.10;;;;;;5048331;28;20246;-50
2022/02/21 02:07:52;;;;;;;2.70;1.37;;;12.60;57.00;;;;;;5046629;28;20185;-46
2022/02/21 02:10:18;;;;;;;2.20;0.90;;;12.50;56.60;;;;;;5045765;28;20815;-45
2022/02/21 02:12:44;;;;;;;3.23;2.40;;;12.50;56.70;;;;;;5045359;28;20565;-44
2022/02/21 02:15:14;;;;;;;7.70;1.03;;;12.40;56.70;;;;;;5038550;28;20436;-44
2022/02/21 02:17:41;;;;;;;1.57;1.07;;;12.50;56.60;;;;;;5035499;28;20213;-45
2022/02/21 02:20:08;;;;;;;2.93;0.83;;;12.50;56.70;;;;;;5048129;28;20893;-44
2022/02/21 02:22:33;;;;;;;2.40;1.30;;;12.60;56.80;;;;;;5042873;28;20442;-45
2022/02/21 02:24:59;;;;;;;2.00;0.80;;;12.60;56.40;;;;;;5048096;28;20439;-44
2022/02/21 02:27:28;;;;;;;2.20;1.37;;;12.70;56.20;;;;;;5046726;28;20189;-45
2022/02/21 02:29:55;;;;;;;0.70;0.70;;;12.40;56.30;;;;;;5049915;28;20559;-45
2022/02/21 02:32:22;;;;;;;1.40;0.80;;;12.50;56.60;;;;;;5029255;28;20483;-44
2022/02/21 02:34:48;;;;;;;1.80;0.77;;;12.30;56.90;;;;;;5037817;28;21348;-45
2022/02/21 02:37:15;;;;;;;2.30;0.90;;;12.30;56.90;;;;;;5042242;28;20443;-45
2022/02/21 02:39:41;;;;;;;2.43;0.87;;;12.40;56.90;;;;;;5040712;28;20450;-46
2022/02/21 02:42:07;;;;;;;4.00;0.90;;;12.50;56.90;;;;;;5043617;28;20477;-45
2022/02/21 02:44:33;;;;;;;4.40;0.90;;;12.30;57.10;;;;;;5041141;28;21618;-44
2022/02/21 02:46:59;;;;;;;2.20;0.70;;;12.30;57.30;;;;;;5039704;28;20489;-45
2022/02/21 02:49:24;;;;;;;1.10;0.90;;;12.30;57.40;;;;;;5045587;28;20211;-44
2022/02/21 02:51:50;;;;;;;0.87;0.63;;;12.30;58.20;;;;;;5040063;28;20228;-44
2022/02/21 02:54:16;;;;;;;2.10;1.00;;;12.30;58.70;;;;;;5039883;28;20197;-44
2022/02/21 02:56:44;;;;;;;1.63;0.67;;;12.30;58.40;;;;;;5041273;28;20281;-46
2022/02/21 02:59:10;;;;;;;2.10;0.87;;;12.20;58.50;;;;;;5038249;28;20666;-46
2022/02/21 03:01:36;;;;;;;2.50;0.70;;;12.00;58.90;;;;;;5035140;28;20541;-44
2022/02/21 03:04:02;;;;;;;0.70;0.53;;;12.00;59.30;;;;;;5038839;28;20679;-45
2022/02/21 03:06:28;;;;;;;3.23;0.73;;;12.20;59.70;;;;;;5041696;28;20432;-46
2022/02/21 03:08:54;;;;;;;2.00;0.60;;;12.40;59.60;;;;;;5039023;28;20188;-45
2022/02/21 03:11:20;;;;;;;2.70;0.90;;;11.90;59.30;;;;;;5042095;28;20492;-46
2022/02/21 03:13:45;;;;;;;2.10;0.80;;;12.10;59.40;;;;;;5040387;28;20683;-45
2022/02/21 03:16:11;;;;;;;1.47;0.90;;;12.10;58.80;;;;;;5038320;28;20188;-45
2022/02/21 03:18:37;;;;;;;1.33;0.70;;;12.20;59.10;;;;;;5040651;28;20455;-44
2022/02/21 03:21:02;;;;;;;0.70;0.60;;;12.20;58.70;;;;;;5040500;28;20233;-45
2022/02/21 03:23:28;;;;;;;2.03;1.00;;;12.40;58.70;;;;;;5037789;28;20209;-45
2022/02/21 03:25:54;;;;;;;1.20;0.70;;;12.30;58.40;;;;;;5041393;28;20195;-44
2022/02/21 03:28:20;;;;;;;1.63;0.90;;;12.20;58.70;;;;;;5038269;28;20508;-46
2022/02/21 03:30:46;;;;;;;1.90;0.70;;;12.20;58.30;;;;;;5041296;28;20192;-44
2022/02/21 03:33:12;;;;;;;1.57;0.77;;;12.20;58.20;;;;;;5040536;28;20185;-45
2022/02/21 03:35:37;;;;;;;0.80;0.70;;;12.20;58.60;;;;;;5045740;28;20933;-44
2022/02/21 03:38:03;;;;;;;1.50;0.90;;;12.10;57.90;;;;;;5047168;28;20188;-45
2022/02/21 03:40:29;;;;;;;0.60;0.50;;;12.20;58.60;;;;;;5042208;28;20567;-46
2022/02/21 03:42:55;;;;;;;4.97;0.97;;;12.00;59.70;;;;;;5047483;28;20354;-44
2022/02/21 03:45:22;;;;;;;1.70;0.60;;;11.20;59.50;;;;;;5042501;28;20443;-44
2022/02/21 03:47:53;;;;;;;1.33;0.50;;;10.30;59.70;;;;;;5042481;28;20466;-43
2022/02/21 03:50:19;;;;;;;1.27;0.70;;;9.50;63.60;;;;;;5043536;28;20459;-43
2022/02/21 03:52:44;;;;;;;1.27;0.63;;;8.90;66.00;;;;;;5036637;28;20483;-43
2022/02/21 03:55:11;;;;;;;3.60;0.80;;;8.50;67.00;;;;;;5048861;28;20435;-43
2022/02/21 03:57:37;;;;;;;2.20;0.90;;;8.20;68.20;;;;;;5055101;28;20637;-43
2022/02/21 04:00:06;;;;;;;1.97;0.70;;;8.00;69.30;;;;;;5045164;28;20438;-43
2022/02/21 04:02:32;;;;;;;1.47;0.60;;;8.20;70.30;;;;;;5041174;28;20438;-43
2022/02/21 04:05:00;;;;;;;1.13;0.67;;;8.10;69.20;;;;;;5039129;28;21001;-43
2022/02/21 04:07:27;;;;;;;0.97;0.77;;;8.00;68.70;;;;;;5050889;28;20189;-45
2022/02/21 04:09:52;;;;;;;0.93;0.70;;;7.70;68.60;;;;;;5041152;28;20436;-45
2022/02/21 04:12:18;;;;;;;1.53;0.70;;;7.60;69.50;;;;;;5046834;28;20984;-44
2022/02/21 04:14:43;;;;;;;1.43;0.60;;;7.70;70.40;;;;;;5043540;28;20189;-44
2022/02/21 04:17:09;;;;;;;1.70;1.00;;;7.80;70.00;;;;;;5049055;28;20664;-44
2022/02/21 04:19:35;;;;;;;3.80;1.23;;;7.80;70.00;;;;;;5036231;28;20544;-44
2022/02/21 04:22:00;;;;;;;3.43;1.20;;;7.60;69.60;;;;;;5046111;28;20266;-44
2022/02/21 04:24:26;;;;;;;2.77;0.93;;;7.40;69.90;;;;;;5043477;28;20247;-45
2022/02/21 04:26:52;;;;;;;2.30;0.77;;;7.60;70.10;;;;;;5049622;28;20188;-43
2022/02/21 04:29:18;;;;;;;1.93;0.77;;;7.50;69.30;;;;;;5038089;28;20442;-46
2022/02/21 04:31:43;;;;;;;1.43;0.80;;;7.40;69.40;;;;;;5043503;28;20227;-45
2022/02/21 04:34:09;;;;;;;2.73;0.73;;;7.50;69.60;;;;;;5041721;28;20258;-43
2022/02/21 04:36:34;;;;;;;1.80;0.70;;;7.50;68.30;;;;;;5046437;28;20200;-44
2022/02/21 04:39:01;;;;;;;3.90;0.80;;;7.60;68.70;;;;;;5046080;28;20636;-46
2022/02/21 04:41:27;;;;;;;1.13;1.03;;;7.90;67.80;;;;;;5040687;28;20245;-47
2022/02/21 04:43:53;;;;;;;3.70;1.17;;;7.80;64.20;;;;;;5048998;28;20431;-44
2022/02/21 04:46:20;;;;;;;1.50;0.80;;;7.90;63.60;;;;;;5051834;28;20201;-45
2022/02/21 04:48:46;;;;;;;2.77;0.97;;;7.90;61.20;;;;;;5042875;28;20473;-45
2022/02/21 04:51:11;;;;;;;1.37;0.90;;;8.10;61.50;;;;;;5041311;28;21040;-45
2022/02/21 04:53:37;;;;;;;1.70;1.10;;;8.40;60.60;;;;;;5045650;28;20200;-43
2022/02/21 04:56:03;;;;;;;3.53;1.40;;;8.40;59.40;;;;;;5043981;28;20613;-43
2022/02/21 04:58:29;;;;;;;2.90;1.60;;;8.60;59.40;;;;;;5045619;28;20892;-44
2022/02/21 05:00:54;;;;;;;12.83;3.30;;;8.80;59.20;;;;;;5046979;28;20475;-45
2022/02/21 05:03:20;;;;;;;7.23;3.10;;;8.90;59.20;;;;;;5047836;28;20279;-46
2022/02/21 05:05:46;;;;;;;2.93;2.20;;;8.90;59.30;;;;;;5044331;28;21224;-45
2022/02/21 05:08:11;;;;;;;4.17;0.97;;;8.90;58.80;;;;;;5044627;28;20250;-44
2022/02/21 05:10:37;;;;;;;1.40;0.80;;;9.10;58.90;;;;;;5043921;28;20189;-44
2022/02/21 05:13:03;;;;;;;7.30;1.30;;;9.20;58.80;;;;;;5044975;28;20192;-45
2022/02/21 05:15:28;;;;;;;2.13;1.20;;;9.10;58.70;;;;;;5048566;28;20200;-44
2022/02/21 05:17:55;;;;;;;5.07;1.37;;;9.00;59.00;;;;;;5039833;28;20244;-43
2022/02/21 05:20:21;;;;;;;5.70;1.20;;;8.80;58.80;;;;;;5043072;28;20216;-43
2022/02/21 05:22:47;;;;;;;5.17;1.23;;;8.70;58.70;;;;;;5037873;28;20505;-43
2022/02/21 05:25:12;;;;;;;3.70;1.80;;;8.60;59.10;;;;;;5041058;28;20439;-47
2022/02/21 05:27:39;;;;;;;4.30;0.80;;;8.80;59.50;;;;;;5046412;28;20203;-45
2022/02/21 05:30:06;;;;;;;2.90;1.10;;;8.90;58.50;;;;;;5043472;28;20185;-44
2022/02/21 05:32:32;;;;;;;5.10;1.50;;;8.70;58.70;;;;;;5044401;28;20546;-47
2022/02/21 05:34:58;;;;;;;5.10;1.10;;;8.60;58.80;;;;;;5049970;28;20430;-44
2022/02/21 05:37:24;;;;;;;2.93;1.13;;;8.80;59.10;;;;;;5050191;28;20423;-46
2022/02/21 05:39:50;;;;;;;5.07;1.50;;;8.90;58.40;;;;;;5046605;28;20451;-44
2022/02/21 05:42:16;;;;;;;2.60;1.43;;;8.70;58.20;;;;;;5049148;28;20475;-43
2022/02/21 05:44:42;;;;;;;5.93;1.10;;;8.90;58.20;;;;;;5046371;28;20192;-44
2022/02/21 05:47:08;;;;;;;6.20;1.67;;;8.80;58.00;;;;;;5046563;28;20526;-44
2022/02/21 05:49:33;;;;;;;5.27;1.47;;;8.80;58.00;;;;;;5047903;28;20206;-45
2022/02/21 05:52:00;;;;;;;4.17;1.30;;;8.80;57.50;;;;;;5046862;28;20299;-44
2022/02/21 05:54:26;;;;;;;5.50;1.80;;;8.80;57.40;;;;;;5046835;28;20195;-45
2022/02/21 05:56:51;;;;;;;3.67;1.37;;;8.80;57.80;;;;;;5038629;28;20523;-45
2022/02/21 05:59:17;;;;;;;6.10;1.67;;;9.00;57.70;;;;;;5041244;28;20185;-44
2022/02/21 06:01:43;;;;;;;13.27;2.07;;;9.00;57.20;;;;;;5045661;28;20645;-49
2022/02/21 06:04:09;;;;;;;3.50;1.63;;;9.00;57.30;;;;;;5051004;28;21010;-43
2022/02/21 06:06:35;;;;;;;3.80;1.50;;;8.90;57.30;;;;;;5046944;28;20281;-46
2022/02/21 06:09:01;;;;;;;3.50;1.20;;;8.90;57.60;;;;;;5037394;28;20200;-43
2022/02/21 06:11:27;;;;;;;3.83;2.10;;;9.10;57.20;;;;;;5046147;28;20494;-44
2022/02/21 06:13:53;;;;;;;5.00;1.73;;;9.40;57.00;;;;;;5046887;28;20931;-44
2022/02/21 06:16:18;;;;;;;9.33;2.17;;;9.40;56.20;;;;;;5046172;28;20189;-44
2022/02/21 06:18:44;;;;;;;8.30;2.07;;;9.40;56.20;;;;;;5048958;28;20555;-46
2022/02/21 06:21:09;;;;;;;3.03;1.73;;;9.40;56.10;;;;;;5037174;28;20189;-44
2022/02/21 06:23:35;;;;;;;6.33;1.70;;;9.40;56.50;;;;;;5045913;28;20197;-44
2022/02/21 06:26:02;;;;;;;5.13;1.40;;;9.40;56.30;;;;;;5047473;28;20553;-45
2022/02/21 06:28:28;;;;;;;3.90;1.53;;;9.30;56.50;;;;;;5043841;28;20338;-45
2022/02/21 06:30:54;;;;;;;5.83;2.53;;;9.50;56.90;;;;;;5044971;28;20545;-44
2022/02/21 06:33:20;;;;;;;8.57;2.00;;;9.40;56.00;;;;;;5041563;28;20438;-44
2022/02/21 06:35:46;;;;;;;6.53;2.03;;;9.10;55.80;;;;;;5043132;28;20446;-44
2022/02/21 06:38:12;;;;;;;6.50;2.03;;;9.10;56.20;;;;;;5040296;28;20228;-45
2022/02/21 06:40:38;;;;;;;8.57;2.07;;;9.20;56.50;;;;;;5043887;28;20450;-46
2022/02/21 06:43:04;;;;;;;4.23;1.93;;;9.00;55.30;;;;;;5045212;28;20474;-46
2022/02/21 06:45:29;;;;;;;7.90;2.47;;;8.80;55.90;;;;;;5042262;28;20239;-44
2022/02/21 06:47:56;;;;;;;8.30;2.07;;;8.90;55.20;;;;;;5048476;28;20231;-44
2022/02/21 06:50:23;;;;;;;4.70;1.70;;;9.20;55.30;;;;;;5044072;28;20541;-44
2022/02/21 06:52:49;;;;;;;5.00;1.50;;;9.20;54.60;;;;;;5037161;28;20484;-46
2022/02/21 06:55:15;;;;;;;4.50;1.77;;;9.20;54.80;;;;;;5041211;28;20423;-44
2022/02/21 06:57:48;;;;;;;8.80;1.47;;;9.20;55.00;;;;;;5040562;28;20959;-44
2022/02/21 07:00:15;;;;;;;10.33;2.40;;;9.40;54.60;;;;;;5039600;28;20792;-44
2022/02/21 07:02:41;;;;;;;6.40;1.70;;;9.40;54.00;;;;;;5047886;28;21111;-44
2022/02/21 07:05:07;;;;;;;4.20;1.77;;;9.60;53.90;;;;;;5039156;28;20438;-44
2022/02/21 07:07:33;;;;;;;6.07;2.20;;;9.90;53.90;;;;;;5048935;28;20196;-45
2022/02/21 07:09:59;;;;;;;5.17;1.33;;;9.70;53.50;;;;;;5040758;28;20497;-44
2022/02/21 07:12:25;;;;;;;3.60;1.50;;;9.70;53.50;;;;;;5046107;28;20529;-44
2022/02/21 07:14:50;;;;;;;9.20;1.87;;;9.70;53.70;;;;;;5043347;28;20197;-46
2022/02/21 07:17:16;;;;;;;6.77;1.67;;;9.50;53.70;;;;;;5040033;28;20191;-45
2022/02/21 07:19:42;;;;;;;5.60;2.73;;;9.20;53.50;;;;;;5044424;28;20545;-46
2022/02/21 07:22:08;;;;;;;8.90;1.73;;;8.80;52.80;;;;;;5047563;28;21693;-45
2022/02/21 07:24:34;;;;;;;8.00;1.93;;;8.90;53.50;;;;;;5046044;28;20227;-45
2022/02/21 07:27:02;;;;;;;3.00;1.50;;;9.00;53.20;;;;;;5046778;28;20199;-44
2022/02/21 07:29:28;;;;;;;7.10;2.00;;;9.10;52.80;;;;;;5039029;28;20442;-44
2022/02/21 07:31:54;;;;;;;7.70;1.70;;;9.20;52.70;;;;;;5040030;28;20493;-44
2022/02/21 07:34:20;;;;;;;8.23;1.73;;;9.10;51.80;;;;;;5040199;28;20196;-44
2022/02/21 07:36:46;;;;;;;5.20;1.87;;;9.30;51.30;;;;;;5047488;28;20952;-44
2022/02/21 07:39:12;;;;;;;11.23;5.60;;;9.40;50.80;;;;;;5046562;28;20193;-43
2022/02/21 07:41:41;;;;;;;11.83;4.17;;;9.70;50.40;;;;;;5045671;28;20192;-44
2022/02/21 07:44:08;;;;;;;8.93;2.20;;;10.00;49.70;;;;;;5042237;28;21047;-44
2022/02/21 07:46:34;;;;;;;5.93;1.80;;;10.10;48.00;;;;;;5044876;28;20522;-47
2022/02/21 07:48:59;;;;;;;11.43;2.57;;;10.30;48.40;;;;;;5047217;28;20193;-47
2022/02/21 07:51:28;;;;;;;7.63;2.40;;;10.40;48.00;;;;;;5045390;28;20482;-48
2022/02/21 07:53:55;;;;;;;9.87;1.90;;;10.60;47.60;;;;;;5040956;28;20207;-44
2022/02/21 07:56:21;;;;;;;6.30;1.80;;;10.80;47.20;;;;;;5048306;28;20423;-44
2022/02/21 07:58:47;;;;;;;4.53;2.03;;;10.90;47.00;;;;;;5034083;28;20527;-45
2022/02/21 08:01:12;;;;;;;5.57;1.97;;;10.90;46.90;;;;;;5041261;28;20690;-44
2022/02/21 08:03:38;;;;;;;9.40;2.37;;;10.70;46.90;;;;;;5038472;28;20200;-44
2022/02/21 08:06:09;;;;;;;7.53;1.70;;;10.60;46.70;;;;;;5045973;28;20188;-45
2022/02/21 08:08:35;;;;;;;8.30;2.10;;;10.50;47.30;;;;;;5040299;28;20291;-43
2022/02/21 08:11:00;;;;;;;4.53;2.20;;;10.40;47.30;;;;;;5047459;28;21243;-43
2022/02/21 08:13:26;;;;;;;6.53;1.93;;;10.10;47.30;;;;;;5040722;28;20212;-48
2022/02/21 08:15:51;;;;;;;11.90;2.67;;;10.10;47.90;;;;;;5044220;28;20192;-46
2022/02/21 08:18:17;;;;;;;9.87;2.20;;;9.90;48.50;;;;;;5039155;28;20275;-44
2022/02/21 08:20:43;;;;;;;9.73;1.73;;;10.10;48.30;;;;;;5044175;28;20685;-43
2022/02/21 08:23:08;;;;;;;4.23;1.40;;;10.20;48.10;;;;;;5029573;28;20205;-45
2022/02/21 08:25:35;;;;;;;7.27;2.40;;;9.90;48.50;;;;;;5035956;28;20564;-44
2022/02/21 08:28:01;;;;;;;10.53;2.20;;;9.80;49.50;;;;;;5042050;28;20211;-43
2022/02/21 08:30:27;;;;;;;9.33;2.30;;;9.70;49.60;;;;;;5045956;28;20530;-43
2022/02/21 08:32:52;;;;;;;8.33;2.23;;;9.80;50.10;;;;;;5043131;28;20232;-43
2022/02/21 08:35:19;;;;;;;9.37;2.50;;;9.60;49.80;;;;;;5048008;28;20277;-46
2022/02/21 08:37:45;;;;;;;4.97;1.93;;;9.50;50.20;;;;;;5049692;28;20220;-44
2022/02/21 08:40:13;;;;;;;8.90;1.83;;;9.40;50.50;;;;;;5048914;28;20434;-45
2022/02/21 08:42:39;;;;;;;8.67;2.37;;;9.20;50.30;;;;;;5046626;28;20471;-45
2022/02/21 08:45:06;;;;;;;8.53;1.73;;;9.50;51.00;;;;;;5047606;28;20471;-45
2022/02/21 08:47:32;;;;;;;7.23;1.70;;;9.70;50.40;;;;;;5045421;28;20493;-46
2022/02/21 08:49:57;;;;;;;6.80;2.10;;;9.70;49.80;;;;;;5044367;28;20428;-47
2022/02/21 08:52:23;;;;;;;9.50;2.33;;;9.80;49.30;;;;;;5045090;28;20226;-47
2022/02/21 08:54:49;;;;;;;6.10;1.80;;;10.00;48.40;;;;;;5043360;28;20714;-43
2022/02/21 08:57:16;;;;;;;12.50;3.13;;;10.10;48.20;;;;;;5052261;28;20188;-44
2022/02/21 08:59:42;;;;;;;8.63;2.30;;;10.20;48.10;;;;;;5046322;28;20259;-44
2022/02/21 09:02:09;;;;;;;5.23;1.70;;;10.20;47.80;;;;;;5048739;28;20478;-44
2022/02/21 09:04:34;;;;;;;10.23;2.43;;;10.30;47.90;;;;;;5042637;28;20431;-44
2022/02/21 09:07:00;;;;;;;12.37;2.33;;;10.50;47.70;;;;;;5041073;28;21025;-44
2022/02/21 09:09:26;;;;;;;4.57;2.23;;;10.40;47.50;;;;;;5036925;28;20196;-46
2022/02/21 09:11:52;;;;;;;11.67;2.50;;;10.30;47.80;;;;;;5042624;28;20240;-44
2022/02/21 09:14:18;;;;;;;8.50;2.40;;;10.10;48.00;;;;;;5045720;28;20234;-44
2022/02/21 09:16:44;;;;;;;5.40;1.80;;;10.20;47.90;;;;;;5049266;28;20489;-46
2022/02/21 09:19:10;;;;;;;8.03;2.20;;;10.10;48.30;;;;;;5048844;28;20927;-45
2022/02/21 09:21:35;;;;;;;7.83;2.10;;;9.80;49.50;;;;;;5040292;28;20578;-47
2022/02/21 09:24:01;;;;;;;13.43;2.47;;;10.00;48.20;;;;;;5039809;28;20217;-46
2022/02/21 09:26:27;;;;;;;8.90;1.97;;;10.10;48.20;;;;;;5053549;28;20208;-45
2022/02/21 09:28:55;;;;;;;10.60;2.43;;;10.10;48.00;;;;;;5044605;28;20203;-43
2022/02/21 09:31:21;;;;;;;5.10;1.90;;;10.50;48.10;;;;;;5043593;28;20507;-44
2022/02/21 09:33:47;;;;;;;7.77;2.50;;;10.50;47.50;;;;;;5042852;28;20486;-44
2022/02/21 09:36:13;;;;;;;7.67;2.10;;;10.20;46.60;;;;;;5044367;28;20200;-48
2022/02/21 09:38:39;;;;;;;6.47;2.23;;;10.20;46.90;;;;;;5037391;28;20198;-44
2022/02/21 09:41:05;;;;;;;6.87;1.90;;;10.10;47.10;;;;;;5038445;28;20447;-46
2022/02/21 09:43:31;;;;;;;2.70;1.43;;;10.40;47.60;;;;;;5042470;28;21067;-48
2022/02/21 09:45:58;;;;;;;8.30;1.77;;;10.30;47.50;;;;;;5043435;28;20436;-46
2022/02/21 09:48:27;;;;;;;7.77;2.13;;;10.10;48.10;;;;;;5036864;28;20435;-46
2022/02/21 09:50:58;;;;;;;6.63;1.90;;;10.10;47.60;;;;;;5041308;28;20419;-46
2022/02/21 09:53:28;;;;;;;8.87;1.87;;;10.20;47.40;;;;;;5040389;28;20535;-46
2022/02/21 09:55:55;;;;;;;6.93;1.33;;;10.30;47.10;;;;;;5043672;28;20937;-45
2022/02/21 09:58:21;;;;;;;4.90;1.63;;;10.50;47.70;;;;;;5043953;28;20973;-46
2022/02/21 10:00:47;;;;;;;8.57;2.27;;;10.90;47.00;;;;;;5041341;28;20953;-47
2022/02/21 10:03:16;;;;;;;11.70;2.40;;;11.10;46.60;;;;;;5028365;28;20431;-45
2022/02/21 10:05:48;;;;;;;5.27;2.33;;;11.10;45.90;;;;;;5041599;28;20197;-45
2022/02/21 10:08:15;;;;;;;5.30;1.37;;;11.50;45.50;;;;;;5031223;28;20483;-46
2022/02/21 10:10:40;;;;;;;8.80;1.93;;;11.70;44.90;;;;;;5031383;28;20863;-45
2022/02/21 10:13:06;;;;;;;5.50;1.43;;;11.80;44.10;;;;;;5032476;28;20562;-45
2022/02/21 10:15:34;;;;;;;8.40;2.50;;;11.30;43.40;;;;;;5039583;28;20275;-44
2022/02/21 10:18:17;;;;;;;8.57;1.77;;;11.30;44.60;;;;;;5031228;28;20189;-49
2022/02/21 10:20:58;;;;;;;4.47;1.53;;;11.30;44.20;;;;;;5031292;28;20965;-46
2022/02/21 10:23:25;;;;;;;8.50;1.63;;;11.30;43.90;;;;;;5030116;28;20447;-47
2022/02/21 10:26:05;;;;;;;6.73;2.33;;;11.20;43.80;;;;;;5046440;28;20493;-45
2022/02/21 10:28:32;;;;;;;6.03;1.67;;;11.40;44.00;;;;;;5039366;28;20494;-44
2022/02/21 10:31:11;;;;;;;5.83;1.50;;;11.60;43.80;;;;;;5031248;28;20460;-47
2022/02/21 10:33:37;;;;;;;8.03;1.60;;;11.40;43.30;;;;;;5030896;28;20511;-44
2022/02/21 10:36:26;;;;;;;4.77;1.40;;;11.50;43.20;;;;;;5033181;28;20871;-47
2022/02/21 10:38:52;;;;;;;5.17;1.53;;;11.40;42.30;;;;;;5031168;28;20612;-47
2022/02/21 10:41:21;;;;;;;5.23;1.87;;;11.30;41.70;;;;;;5049443;28;20443;-47
2022/02/21 10:43:47;;;;;;;2.60;1.20;;;11.20;41.80;;;;;;5046144;28;20232;-46
2022/02/21 10:46:13;;;;;;;4.43;1.60;;;11.20;41.60;;;;;;5031371;28;20478;-46
2022/02/21 10:48:43;;;;;;;2.77;1.40;;;11.20;41.80;;;;;;5030575;28;20276;-45
2022/02/21 10:51:09;;;;;;;3.33;1.10;;;11.70;41.70;;;;;;5029721;28;20471;-46
2022/02/21 10:53:45;;;;;;;3.20;1.23;;;11.80;40.50;;;;;;5040087;28;20431;-47
2022/02/21 10:56:12;;;;;;;2.80;1.30;;;11.60;40.70;;;;;;5051411;28;20518;-47
2022/02/21 10:58:38;;;;;;;6.40;1.47;;;11.30;40.60;;;;;;5050719;28;20476;-48
2022/02/21 11:01:10;;;;;;;3.67;1.40;;;11.20;40.90;;;;;;5050757;28;20918;-46
2022/02/21 11:03:36;;;;;;;3.20;1.43;;;11.30;41.40;;;;;;5032277;28;20809;-49
2022/02/21 11:06:04;;;;;;;5.27;1.97;;;11.00;41.70;;;;;;5048129;28;20439;-48
2022/02/21 11:08:31;;;;;;;3.77;1.73;;;11.10;41.50;;;;;;5030721;28;20432;-47
2022/02/21 11:11:03;;;;;;;2.93;1.37;;;11.00;41.30;;;;;;5030680;28;20439;-48
2022/02/21 11:13:29;;;;;;;3.77;1.33;;;11.20;41.70;;;;;;5033025;28;20443;-49
2022/02/21 11:15:56;;;;;;;4.47;1.83;;;11.60;41.40;;;;;;5050602;28;20423;-50
2022/02/21 11:18:23;;;;;;;4.67;1.17;;;12.00;40.50;;;;;;5049759;28;20422;-48
2022/02/21 11:20:49;;;;;;;3.73;1.20;;;12.30;39.50;;;;;;5049706;28;20560;-48
2022/02/21 11:23:15;;;;;;;7.20;1.90;;;12.40;38.90;;;;;;5049977;28;20427;-49
2022/02/21 11:26:04;;;;;;;4.57;1.37;;;12.30;38.60;;;;;;5047345;28;20848;-45
2022/02/21 11:28:44;;;;;;;6.60;2.00;;;12.10;38.20;;;;;;5030124;28;20223;-45
2022/02/21 11:31:14;;;;;;;4.10;1.50;;;11.80;38.90;;;;;;5038677;28;20474;-45
2022/02/21 11:34:06;;;;;;;5.30;1.53;;;11.50;39.50;;;;;;5036930;28;20215;-48
2022/02/21 11:36:34;;;;;;;3.40;1.40;;;11.50;40.10;;;;;;5038706;28;20439;-45
2022/02/21 11:39:22;;;;;;;2.90;1.27;;;11.50;41.00;;;;;;5044048;28;20488;-46
2022/02/21 11:42:02;;;;;;;4.73;1.20;;;11.10;42.00;;;;;;5043648;28;20477;-48
2022/02/21 11:44:28;;;;;;;4.10;1.20;;;10.80;43.10;;;;;;5044631;28;20447;-45
2022/02/21 11:47:07;;;;;;;5.20;1.13;;;10.90;44.30;;;;;;5036227;28;20468;-44
2022/02/21 11:49:37;;;;;;;5.00;1.30;;;10.70;49.30;;;;;;5043619;28;20435;-44
2022/02/21 11:52:31;;;;;;;2.80;1.03;;;10.40;51.60;;;;;;5044231;28;20475;-44
2022/02/21 11:54:58;;;;;;;5.67;1.90;;;10.30;53.60;;;;;;5033811;28;20467;-44
2022/02/21 11:57:28;;;;;;;4.40;1.47;;;10.10;53.90;;;;;;5038854;28;20442;-45
2022/02/21 11:59:54;;;;;;;6.63;1.30;;;10.00;54.50;;;;;;5040171;28;20440;-44
2022/02/21 12:02:20;;;;;;;6.07;1.37;;;9.80;55.10;;;;;;5034619;28;20468;-45
2022/02/21 12:04:57;;;;;;;4.57;1.00;;;9.80;55.00;;;;;;5038929;28;20487;-45
2022/02/21 12:07:33;;;;;;;2.93;1.33;;;10.20;53.00;;;;;;5048378;28;20234;-45
2022/02/21 12:10:14;;;;;;;4.67;1.20;;;10.50;51.60;;;;;;5043130;28;20957;-46
2022/02/21 12:12:51;;;;;;;2.50;1.13;;;10.40;50.20;;;;;;5036682;28;21047;-45
2022/02/21 12:15:17;;;;;;;6.03;1.70;;;10.30;50.10;;;;;;5046859;28;20537;-44
2022/02/21 12:17:44;;;;;;;4.67;1.40;;;10.50;49.50;;;;;;5048691;28;20443;-45
2022/02/21 12:20:28;;;;;;;4.07;1.27;;;10.70;48.50;;;;;;5039207;28;20431;-46
2022/02/21 12:23:16;;;;;;;1.20;1.00;;;10.80;47.70;;;;;;5051006;28;20490;-44
2022/02/21 12:26:06;;;;;;;3.80;1.30;;;11.00;46.80;;;;;;5035455;28;20443;-44
2022/02/21 12:28:32;;;;;;;4.43;1.80;;;11.00;45.60;;;;;;5032127;28;20443;-44
2022/02/21 12:30:58;;;;;;;3.60;1.53;;;10.90;45.50;;;;;;5038094;28;20438;-44
2022/02/21 12:33:31;;;;;;;4.50;1.63;;;11.30;45.80;;;;;;5045112;28;20201;-45
2022/02/21 12:35:59;;;;;;;9.73;1.83;;;11.40;45.00;;;;;;5042293;28;20447;-45
2022/02/21 12:38:36;;;;;;;1.83;0.97;;;11.30;44.50;;;;;;5052322;28;20438;-44
2022/02/21 12:41:08;;;;;;;2.33;1.40;;;11.20;42.80;;;;;;5047240;28;20438;-43
2022/02/21 12:43:55;;;;;;;5.53;1.60;;;11.00;41.00;;;;;;5042017;28;21002;-44
2022/02/21 12:46:28;;;;;;;4.40;1.23;;;11.00;40.70;;;;;;5037470;28;20440;-44
2022/02/21 12:48:54;;;;;;;2.50;1.10;;;11.00;40.90;;;;;;5045279;28;20443;-44
2022/02/21 12:51:26;;;;;;;3.87;1.23;;;11.00;40.40;;;;;;5040897;28;20525;-44